KMSS/MSS METAR and TAF weather

Enter ICAO airport designator
Station Type Date Time Source
KMSS METAR 2019/12/09 13:53 UTC NOAA

KMSS 091353Z AUTO 00000KT 10SM BKN080 OVC090 04/01 A2996 RMK AO2 RAB1254E14 SLP150 P0000 T00440011


Station Type Date Time Source
KMSS Decoded METAR 2019/12/09 13:53 UTC NOAA

MASSENA INTERNATIONAL -RICHARDS FLD, NY, United States (KMSS) 44-56N 074-51W 66M
Dec 09, 2019 - 08:53 AM EST / 2019.12.09 1353 UTC
Wind: Calm:0
Visibility: 10 mile(s):0
Sky conditions: overcast
Precipitation last hour: A trace
Temperature: 39.9 F (4.4 C)
Dew Point: 34.0 F (1.1 C)
Relative Humidity: 79%
Pressure (altimeter): 29.96 in. Hg (1014 hPa)
ob: KMSS 091353Z AUTO 00000KT 10SM BKN080 OVC090 04/01 A2996 RMK AO2 RAB1254E14 SLP150 P0000 T00440011
cycle: 14

Station Type Date Time Source
KMSS TAF 2019/12/09 13:42 UTC NOAA

TAF
AMD KMSS 091239Z 0913/1012 19007KT P6SM OVC035 WS020/23035KT
FM091600 14006KT P6SM VCSH OVC035
FM092200 14006KT 3SM -RA BR OVC019 WS020/20040KT
FM100200 21011G19KT P6SM OVC013 WS020/23050KT
FM100900 22011KT P6SM BKN009 WS020/24045KT
FM101100 22012G20KT P6SM OVC011 WS020/24045KT

Example: see airport list